sensor_id;sensor_type;location;lat;lon;timestamp;temperature;humidity
46043;DHT22;32533;-33.854;18.542;2022-12-01T00:01:11;24.20;68.30
46043;DHT22;32533;-33.854;18.542;2022-12-01T00:03:38;24.20;68.10
46043;DHT22;32533;-33.854;18.542;2022-12-01T00:06:16;24.10;68.10
46043;DHT22;32533;-33.854;18.542;2022-12-01T00:08:43;24.20;68.00
46043;DHT22;32533;-33.854;18.542;2022-12-01T00:11:29;24.10;68.00
46043;DHT22;32533;-33.854;18.542;2022-12-01T00:13:55;24.10;68.00
46043;DHT22;32533;-33.854;18.542;2022-12-01T00:16:22;24.10;68.00
46043;DHT22;32533;-33.854;18.542;2022-12-01T00:18:49;24.10;68.00
46043;DHT22;32533;-33.854;18.542;2022-12-01T00:21:18;24.10;68.10
46043;DHT22;32533;-33.854;18.542;2022-12-01T00:23:47;24.10;68.10
46043;DHT22;32533;-33.854;18.542;2022-12-01T00:26:14;24.00;68.20
46043;DHT22;32533;-33.854;18.542;2022-12-01T00:28:41;24.00;68.10
46043;DHT22;32533;-33.854;18.542;2022-12-01T00:31:09;24.00;68.30
46043;DHT22;32533;-33.854;18.542;2022-12-01T00:33:36;24.00;68.30
46043;DHT22;32533;-33.854;18.542;2022-12-01T00:36:03;24.00;68.40
46043;DHT22;32533;-33.854;18.542;2022-12-01T00:38:31;24.00;68.40
46043;DHT22;32533;-33.854;18.542;2022-12-01T00:40:57;24.00;68.50
46043;DHT22;32533;-33.854;18.542;2022-12-01T00:43:24;24.00;68.50
46043;DHT22;32533;-33.854;18.542;2022-12-01T00:45:51;24.00;69.20
46043;DHT22;32533;-33.854;18.542;2022-12-01T00:48:17;24.00;69.30
46043;DHT22;32533;-33.854;18.542;2022-12-01T00:50:44;24.00;69.60
46043;DHT22;32533;-33.854;18.542;2022-12-01T00:53:11;24.00;69.80
46043;DHT22;32533;-33.854;18.542;2022-12-01T00:55:37;24.00;69.80
46043;DHT22;32533;-33.854;18.542;2022-12-01T00:58:05;24.00;70.10
46043;DHT22;32533;-33.854;18.542;2022-12-01T01:00:32;23.90;70.60
46043;DHT22;32533;-33.854;18.542;2022-12-01T01:02:59;23.90;70.70
46043;DHT22;32533;-33.854;18.542;2022-12-01T01:05:25;23.90;70.70
46043;DHT22;32533;-33.854;18.542;2022-12-01T01:07:52;24.00;70.70
46043;DHT22;32533;-33.854;18.542;2022-12-01T01:10:18;23.90;70.50
46043;DHT22;32533;-33.854;18.542;2022-12-01T01:12:45;23.90;70.30
46043;DHT22;32533;-33.854;18.542;2022-12-01T01:15:11;23.90;70.00
46043;DHT22;32533;-33.854;18.542;2022-12-01T01:17:38;23.90;69.70
46043;DHT22;32533;-33.854;18.542;2022-12-01T01:20:05;23.90;69.50
46043;DHT22;32533;-33.854;18.542;2022-12-01T01:22:33;23.80;69.00
46043;DHT22;32533;-33.854;18.542;2022-12-01T01:25:00;23.80;68.90
46043;DHT22;32533;-33.854;18.542;2022-12-01T01:27:26;23.80;68.90
46043;DHT22;32533;-33.854;18.542;2022-12-01T01:29:53;23.80;69.00
46043;DHT22;32533;-33.854;18.542;2022-12-01T01:32:19;23.80;69.00
46043;DHT22;32533;-33.854;18.542;2022-12-01T01:34:46;23.70;68.80
46043;DHT22;32533;-33.854;18.542;2022-12-01T01:37:12;23.70;68.90
46043;DHT22;32533;-33.854;18.542;2022-12-01T01:39:39;23.70;68.90
46043;DHT22;32533;-33.854;18.542;2022-12-01T01:42:07;23.70;68.90
46043;DHT22;32533;-33.854;18.542;2022-12-01T01:44:52;23.70;69.00
46043;DHT22;32533;-33.854;18.542;2022-12-01T01:47:32;23.70;69.00
46043;DHT22;32533;-33.854;18.542;2022-12-01T01:50:04;23.70;69.00
46043;DHT22;32533;-33.854;18.542;2022-12-01T01:52:37;23.70;69.00
46043;DHT22;32533;-33.854;18.542;2022-12-01T01:55:05;23.70;69.00
46043;DHT22;32533;-33.854;18.542;2022-12-01T01:57:33;23.60;69.00
46043;DHT22;32533;-33.854;18.542;2022-12-01T02:00:10;23.70;69.20
46043;DHT22;32533;-33.854;18.542;2022-12-01T02:02:41;23.60;69.10
46043;DHT22;32533;-33.854;18.542;2022-12-01T02:05:20;23.60;69.10
46043;DHT22;32533;-33.854;18.542;2022-12-01T02:07:49;23.60;69.10
46043;DHT22;32533;-33.854;18.542;2022-12-01T02:10:16;23.60;69.80
46043;DHT22;32533;-33.854;18.542;2022-12-01T02:13:05;23.60;69.10
46043;DHT22;32533;-33.854;18.542;2022-12-01T02:27:48;23.50;69.20
46043;DHT22;32533;-33.854;18.542;2022-12-01T02:33:55;23.50;69.20
46043;DHT22;32533;-33.854;18.542;2022-12-01T02:36:33;23.50;69.10
46043;DHT22;32533;-33.854;18.542;2022-12-01T02:39:08;23.50;69.10
46043;DHT22;32533;-33.854;18.542;2022-12-01T02:41:40;23.40;69.10
46043;DHT22;32533;-33.854;18.542;2022-12-01T02:44:28;23.40;69.10
46043;DHT22;32533;-33.854;18.542;2022-12-01T02:47:08;23.40;69.10
46043;DHT22;32533;-33.854;18.542;2022-12-01T02:49:51;23.40;69.20
46043;DHT22;32533;-33.854;18.542;2022-12-01T02:52:19;23.40;69.20
46043;DHT22;32533;-33.854;18.542;2022-12-01T02:54:47;23.40;69.30
46043;DHT22;32533;-33.854;18.542;2022-12-01T02:57:15;23.30;69.20
46043;DHT22;32533;-33.854;18.542;2022-12-01T02:59:44;23.30;69.40
46043;DHT22;32533;-33.854;18.542;2022-12-01T03:05:05;23.30;69.80
46043;DHT22;32533;-33.854;18.542;2022-12-01T03:07:49;23.30;69.10
46043;DHT22;32533;-33.854;18.542;2022-12-01T03:13:20;23.30;68.70
46043;DHT22;32533;-33.854;18.542;2022-12-01T03:16:23;23.30;68.70
46043;DHT22;32533;-33.854;18.542;2022-12-01T03:22:08;23.20;68.50
46043;DHT22;32533;-33.854;18.542;2022-12-01T03:24:37;23.20;68.50
46043;DHT22;32533;-33.854;18.542;2022-12-01T03:27:05;23.20;68.50
46043;DHT22;32533;-33.854;18.542;2022-12-01T03:29:50;23.10;68.40
46043;DHT22;32533;-33.854;18.542;2022-12-01T03:32:28;23.10;68.40
46043;DHT22;32533;-33.854;18.542;2022-12-01T03:35:18;23.10;68.50
46043;DHT22;32533;-33.854;18.542;2022-12-01T03:40:30;23.10;68.50
46043;DHT22;32533;-33.854;18.542;2022-12-01T03:43:20;23.10;68.60
46043;DHT22;32533;-33.854;18.542;2022-12-01T03:48:34;23.00;68.80
46043;DHT22;32533;-33.854;18.542;2022-12-01T03:51:20;23.00;68.90
46043;DHT22;32533;-33.854;18.542;2022-12-01T03:53:58;23.00;69.10
46043;DHT22;32533;-33.854;18.542;2022-12-01T03:56:31;23.00;69.20
46043;DHT22;32533;-33.854;18.542;2022-12-01T03:59:00;23.10;69.40
46043;DHT22;32533;-33.854;18.542;2022-12-01T04:01:50;23.10;70.40
46043;DHT22;32533;-33.854;18.542;2022-12-01T04:04:56;23.10;70.30
46043;DHT22;32533;-33.854;18.542;2022-12-01T04:08:02;23.10;70.50
46043;DHT22;32533;-33.854;18.542;2022-12-01T04:10:48;23.10;70.40
46043;DHT22;32533;-33.854;18.542;2022-12-01T04:14:13;23.10;70.50
46043;DHT22;32533;-33.854;18.542;2022-12-01T04:17:19;23.10;70.60
46043;DHT22;32533;-33.854;18.542;2022-12-01T04:19:46;23.20;71.20
46043;DHT22;32533;-33.854;18.542;2022-12-01T04:22:12;23.20;72.00
46043;DHT22;32533;-33.854;18.542;2022-12-01T04:24:39;23.20;72.00
46043;DHT22;32533;-33.854;18.542;2022-12-01T04:27:06;23.30;71.80
46043;DHT22;32533;-33.854;18.542;2022-12-01T04:29:50;23.30;71.50
46043;DHT22;32533;-33.854;18.542;2022-12-01T04:32:17;23.30;71.40
46043;DHT22;32533;-33.854;18.542;2022-12-01T04:34:43;23.30;71.10
46043;DHT22;32533;-33.854;18.542;2022-12-01T04:37:10;23.30;71.00
46043;DHT22;32533;-33.854;18.542;2022-12-01T04:39:37;23.30;70.90
46043;DHT22;32533;-33.854;18.542;2022-12-01T04:42:04;23.30;70.90
46043;DHT22;32533;-33.854;18.542;2022-12-01T04:44:31;23.30;70.80
46043;DHT22;32533;-33.854;18.542;2022-12-01T04:46:57;23.30;70.80
46043;DHT22;32533;-33.854;18.542;2022-12-01T04:49:24;23.30;70.80
46043;DHT22;32533;-33.854;18.542;2022-12-01T04:51:50;23.30;70.90
46043;DHT22;32533;-33.854;18.542;2022-12-01T04:54:17;23.40;70.90
46043;DHT22;32533;-33.854;18.542;2022-12-01T04:56:44;23.40;70.90
46043;DHT22;32533;-33.854;18.542;2022-12-01T04:59:11;23.30;70.80
46043;DHT22;32533;-33.854;18.542;2022-12-01T05:01:37;23.40;70.80
46043;DHT22;32533;-33.854;18.542;2022-12-01T05:04:04;23.40;71.00
46043;DHT22;32533;-33.854;18.542;2022-12-01T05:06:31;23.40;71.70
46043;DHT22;32533;-33.854;18.542;2022-12-01T05:08:59;23.40;71.80
46043;DHT22;32533;-33.854;18.542;2022-12-01T05:11:28;23.40;71.70
46043;DHT22;32533;-33.854;18.542;2022-12-01T05:13:55;23.40;71.50
46043;DHT22;32533;-33.854;18.542;2022-12-01T05:16:33;23.40;71.40
46043;DHT22;32533;-33.854;18.542;2022-12-01T05:19:03;23.40;71.70
46043;DHT22;32533;-33.854;18.542;2022-12-01T05:21:49;23.50;72.30
46043;DHT22;32533;-33.854;18.542;2022-12-01T05:24:17;23.50;72.60
46043;DHT22;32533;-33.854;18.542;2022-12-01T05:26:44;23.50;72.50
46043;DHT22;32533;-33.854;18.542;2022-12-01T05:29:11;23.50;72.30
46043;DHT22;32533;-33.854;18.542;2022-12-01T05:31:38;23.50;72.20
46043;DHT22;32533;-33.854;18.542;2022-12-01T05:34:05;23.60;72.40
46043;DHT22;32533;-33.854;18.542;2022-12-01T05:36:32;23.60;72.80
46043;DHT22;32533;-33.854;18.542;2022-12-01T05:38:59;23.60;72.90
46043;DHT22;32533;-33.854;18.542;2022-12-01T05:41:25;23.60;73.00
46043;DHT22;32533;-33.854;18.542;2022-12-01T05:43:52;23.60;72.90
46043;DHT22;32533;-33.854;18.542;2022-12-01T05:46:18;23.60;72.60
46043;DHT22;32533;-33.854;18.542;2022-12-01T05:48:45;23.70;72.50
46043;DHT22;32533;-33.854;18.542;2022-12-01T05:51:14;23.70;72.60
46043;DHT22;32533;-33.854;18.542;2022-12-01T05:53:41;23.70;72.70
46043;DHT22;32533;-33.854;18.542;2022-12-01T05:56:07;23.70;72.80
46043;DHT22;32533;-33.854;18.542;2022-12-01T05:58:34;23.80;72.70
46043;DHT22;32533;-33.854;18.542;2022-12-01T06:01:01;23.80;72.60
46043;DHT22;32533;-33.854;18.542;2022-12-01T06:03:28;23.80;72.50
46043;DHT22;32533;-33.854;18.542;2022-12-01T06:05:54;23.90;72.50
46043;DHT22;32533;-33.854;18.542;2022-12-01T06:08:21;23.90;72.20
46043;DHT22;32533;-33.854;18.542;2022-12-01T06:10:47;23.90;72.30
46043;DHT22;32533;-33.854;18.542;2022-12-01T06:13:14;24.00;72.30
46043;DHT22;32533;-33.854;18.542;2022-12-01T06:15:40;24.00;72.10
46043;DHT22;32533;-33.854;18.542;2022-12-01T06:18:07;24.10;72.00
46043;DHT22;32533;-33.854;18.542;2022-12-01T06:20:33;24.10;71.60
46043;DHT22;32533;-33.854;18.542;2022-12-01T06:23:00;24.10;71.10
46043;DHT22;32533;-33.854;18.542;2022-12-01T06:25:27;24.10;70.60
46043;DHT22;32533;-33.854;18.542;2022-12-01T06:27:57;24.10;70.30
46043;DHT22;32533;-33.854;18.542;2022-12-01T06:30:24;24.20;70.10
46043;DHT22;32533;-33.854;18.542;2022-12-01T06:32:51;24.20;69.90
46043;DHT22;32533;-33.854;18.542;2022-12-01T06:35:18;24.20;69.80
46043;DHT22;32533;-33.854;18.542;2022-12-01T06:37:44;24.20;69.60
46043;DHT22;32533;-33.854;18.542;2022-12-01T06:40:11;24.20;69.50
46043;DHT22;32533;-33.854;18.542;2022-12-01T06:42:38;24.20;69.20
46043;DHT22;32533;-33.854;18.542;2022-12-01T06:45:05;24.30;69.20
46043;DHT22;32533;-33.854;18.542;2022-12-01T06:47:31;24.30;69.10
46043;DHT22;32533;-33.854;18.542;2022-12-01T06:49:58;24.40;69.10
46043;DHT22;32533;-33.854;18.542;2022-12-01T06:52:24;24.40;69.20
46043;DHT22;32533;-33.854;18.542;2022-12-01T06:54:51;24.50;69.30
46043;DHT22;32533;-33.854;18.542;2022-12-01T06:57:17;24.50;69.10
46043;DHT22;32533;-33.854;18.542;2022-12-01T06:59:44;24.50;68.90
46043;DHT22;32533;-33.854;18.542;2022-12-01T07:02:11;24.50;68.80
46043;DHT22;32533;-33.854;18.542;2022-12-01T07:04:37;24.50;68.70
46043;DHT22;32533;-33.854;18.542;2022-12-01T07:07:05;24.50;68.70
46043;DHT22;32533;-33.854;18.542;2022-12-01T07:09:31;24.50;68.70
46043;DHT22;32533;-33.854;18.542;2022-12-01T07:11:58;24.50;68.80
46043;DHT22;32533;-33.854;18.542;2022-12-01T07:14:25;24.50;68.90
46043;DHT22;32533;-33.854;18.542;2022-12-01T07:16:52;24.50;68.90
46043;DHT22;32533;-33.854;18.542;2022-12-01T07:19:19;24.50;68.80
46043;DHT22;32533;-33.854;18.542;2022-12-01T07:21:45;24.60;68.80
46043;DHT22;32533;-33.854;18.542;2022-12-01T07:24:12;24.60;68.80
46043;DHT22;32533;-33.854;18.542;2022-12-01T07:26:40;24.60;68.80
46043;DHT22;32533;-33.854;18.542;2022-12-01T07:29:07;24.60;68.70
46043;DHT22;32533;-33.854;18.542;2022-12-01T07:31:34;24.60;68.60
46043;DHT22;32533;-33.854;18.542;2022-12-01T07:34:01;24.70;68.70
46043;DHT22;32533;-33.854;18.542;2022-12-01T07:36:28;24.70;68.60
46043;DHT22;32533;-33.854;18.542;2022-12-01T07:38:54;24.70;68.70
46043;DHT22;32533;-33.854;18.542;2022-12-01T07:41:21;24.70;68.70
46043;DHT22;32533;-33.854;18.542;2022-12-01T07:43:48;24.80;68.70
46043;DHT22;32533;-33.854;18.542;2022-12-01T07:46:17;24.70;68.40
46043;DHT22;32533;-33.854;18.542;2022-12-01T07:48:44;24.80;68.40
46043;DHT22;32533;-33.854;18.542;2022-12-01T07:51:12;24.80;68.10
46043;DHT22;32533;-33.854;18.542;2022-12-01T07:53:45;24.80;68.10
46043;DHT22;32533;-33.854;18.542;2022-12-01T07:56:12;24.80;67.90
46043;DHT22;32533;-33.854;18.542;2022-12-01T07:58:38;24.80;67.70
46043;DHT22;32533;-33.854;18.542;2022-12-01T08:01:09;24.90;67.60
46043;DHT22;32533;-33.854;18.542;2022-12-01T08:03:38;24.90;67.30
46043;DHT22;32533;-33.854;18.542;2022-12-01T08:06:05;24.90;67.10
46043;DHT22;32533;-33.854;18.542;2022-12-01T08:08:34;24.90;67.00
46043;DHT22;32533;-33.854;18.542;2022-12-01T08:11:03;25.00;66.90
46043;DHT22;32533;-33.854;18.542;2022-12-01T08:13:31;25.00;66.90
46043;DHT22;32533;-33.854;18.542;2022-12-01T08:15:57;25.00;66.70
46043;DHT22;32533;-33.854;18.542;2022-12-01T08:18:24;25.10;66.60
46043;DHT22;32533;-33.854;18.542;2022-12-01T08:20:50;25.10;66.50
46043;DHT22;32533;-33.854;18.542;2022-12-01T08:23:21;25.20;66.40
46043;DHT22;32533;-33.854;18.542;2022-12-01T08:25:47;25.20;66.00
46043;DHT22;32533;-33.854;18.542;2022-12-01T08:28:14;25.20;65.70
46043;DHT22;32533;-33.854;18.542;2022-12-01T08:30:40;25.20;65.50
46043;DHT22;32533;-33.854;18.542;2022-12-01T08:33:07;25.30;65.40
46043;DHT22;32533;-33.854;18.542;2022-12-01T08:35:35;25.30;65.00
46043;DHT22;32533;-33.854;18.542;2022-12-01T08:38:02;25.40;64.80
46043;DHT22;32533;-33.854;18.542;2022-12-01T08:40:29;25.50;64.50
46043;DHT22;32533;-33.854;18.542;2022-12-01T08:42:56;25.50;64.30
46043;DHT22;32533;-33.854;18.542;2022-12-01T08:45:23;25.50;64.00
46043;DHT22;32533;-33.854;18.542;2022-12-01T08:47:50;25.60;64.60
46043;DHT22;32533;-33.854;18.542;2022-12-01T08:50:18;25.70;63.80
46043;DHT22;32533;-33.854;18.542;2022-12-01T08:52:44;25.70;63.80
46043;DHT22;32533;-33.854;18.542;2022-12-01T08:55:11;25.80;63.70
46043;DHT22;32533;-33.854;18.542;2022-12-01T08:57:37;25.80;63.80
46043;DHT22;32533;-33.854;18.542;2022-12-01T09:00:04;25.90;63.90
46043;DHT22;32533;-33.854;18.542;2022-12-01T09:02:31;25.90;63.90
46043;DHT22;32533;-33.854;18.542;2022-12-01T09:04:57;25.90;63.70
46043;DHT22;32533;-33.854;18.542;2022-12-01T09:07:24;26.00;63.80
46043;DHT22;32533;-33.854;18.542;2022-12-01T09:09:50;26.00;63.90
46043;DHT22;32533;-33.854;18.542;2022-12-01T09:12:17;26.10;63.80
46043;DHT22;32533;-33.854;18.542;2022-12-01T09:14:44;26.10;63.80
46043;DHT22;32533;-33.854;18.542;2022-12-01T09:17:15;26.10;63.70
46043;DHT22;32533;-33.854;18.542;2022-12-01T09:19:43;26.10;63.60
46043;DHT22;32533;-33.854;18.542;2022-12-01T09:22:10;26.10;63.60
46043;DHT22;32533;-33.854;18.542;2022-12-01T09:24:37;26.10;64.00
46043;DHT22;32533;-33.854;18.542;2022-12-01T09:27:04;26.20;64.20
46043;DHT22;32533;-33.854;18.542;2022-12-01T09:29:31;26.20;64.10
46043;DHT22;32533;-33.854;18.542;2022-12-01T09:31:59;26.20;64.10
46043;DHT22;32533;-33.854;18.542;2022-12-01T09:34:27;26.30;64.00
46043;DHT22;32533;-33.854;18.542;2022-12-01T09:36:55;26.30;63.70
46043;DHT22;32533;-33.854;18.542;2022-12-01T09:39:22;26.30;63.30
46043;DHT22;32533;-33.854;18.542;2022-12-01T09:41:51;26.40;64.00
46043;DHT22;32533;-33.854;18.542;2022-12-01T09:46:56;26.50;64.00
46043;DHT22;32533;-33.854;18.542;2022-12-01T09:49:35;26.50;63.80
46043;DHT22;32533;-33.854;18.542;2022-12-01T09:52:03;26.50;63.80
46043;DHT22;32533;-33.854;18.542;2022-12-01T09:54:29;26.50;63.60
46043;DHT22;32533;-33.854;18.542;2022-12-01T09:56:56;26.50;63.60
46043;DHT22;32533;-33.854;18.542;2022-12-01T09:59:31;26.60;63.60
46043;DHT22;32533;-33.854;18.542;2022-12-01T10:02:02;26.60;63.30
46043;DHT22;32533;-33.854;18.542;2022-12-01T10:04:38;26.60;63.20
46043;DHT22;32533;-33.854;18.542;2022-12-01T10:10:04;26.70;62.60
46043;DHT22;32533;-33.854;18.542;2022-12-01T10:12:34;26.70;62.20
46043;DHT22;32533;-33.854;18.542;2022-12-01T10:15:27;26.80;61.80
46043;DHT22;32533;-33.854;18.542;2022-12-01T10:34:31;27.00;60.60
46043;DHT22;32533;-33.854;18.542;2022-12-01T10:36:58;27.00;60.40
46043;DHT22;32533;-33.854;18.542;2022-12-01T10:39:41;27.00;60.30
46043;DHT22;32533;-33.854;18.542;2022-12-01T10:42:12;26.90;60.20
46043;DHT22;32533;-33.854;18.542;2022-12-01T10:44:40;26.90;60.30
46043;DHT22;32533;-33.854;18.542;2022-12-01T10:47:33;26.90;60.20
46043;DHT22;32533;-33.854;18.542;2022-12-01T10:50:00;26.90;60.10
46043;DHT22;32533;-33.854;18.542;2022-12-01T10:52:39;26.80;60.00
46043;DHT22;32533;-33.854;18.542;2022-12-01T10:55:27;26.80;59.90
46043;DHT22;32533;-33.854;18.542;2022-12-01T10:57:56;26.80;60.00
46043;DHT22;32533;-33.854;18.542;2022-12-01T11:00:33;26.90;60.10
46043;DHT22;32533;-33.854;18.542;2022-12-01T11:03:01;26.90;59.80
46043;DHT22;32533;-33.854;18.542;2022-12-01T11:05:40;26.90;59.40
46043;DHT22;32533;-33.854;18.542;2022-12-01T11:08:21;27.00;59.40
46043;DHT22;32533;-33.854;18.542;2022-12-01T11:10:48;27.10;59.30
46043;DHT22;32533;-33.854;18.542;2022-12-01T11:13:23;27.00;59.00
46043;DHT22;32533;-33.854;18.542;2022-12-01T11:16:01;27.10;58.60
46043;DHT22;32533;-33.854;18.542;2022-12-01T11:21:26;27.20;58.10
46043;DHT22;32533;-33.854;18.542;2022-12-01T11:23:54;27.20;58.50
46043;DHT22;32533;-33.854;18.542;2022-12-01T11:26:25;27.20;58.50
46043;DHT22;32533;-33.854;18.542;2022-12-01T11:31:33;27.20;58.50
46043;DHT22;32533;-33.854;18.542;2022-12-01T11:34:01;27.30;58.60
46043;DHT22;32533;-33.854;18.542;2022-12-01T11:36:42;27.30;58.50
46043;DHT22;32533;-33.854;18.542;2022-12-01T11:41:46;27.40;58.10
46043;DHT22;32533;-33.854;18.542;2022-12-01T11:44:18;27.40;58.30
46043;DHT22;32533;-33.854;18.542;2022-12-01T11:46:45;27.40;58.40
46043;DHT22;32533;-33.854;18.542;2022-12-01T11:49:19;27.50;58.40
46043;DHT22;32533;-33.854;18.542;2022-12-01T11:51:46;27.50;57.60
46043;DHT22;32533;-33.854;18.542;2022-12-01T11:54:25;27.50;57.90
46043;DHT22;32533;-33.854;18.542;2022-12-01T11:56:52;27.50;58.10
46043;DHT22;32533;-33.854;18.542;2022-12-01T11:59:25;27.60;58.20
46043;DHT22;32533;-33.854;18.542;2022-12-01T12:02:10;27.60;58.30
46043;DHT22;32533;-33.854;18.542;2022-12-01T12:05:19;27.60;58.50
46043;DHT22;32533;-33.854;18.542;2022-12-01T12:08:02;27.60;59.00
46043;DHT22;32533;-33.854;18.542;2022-12-01T12:10:36;27.50;59.70
46043;DHT22;32533;-33.854;18.542;2022-12-01T12:30:20;27.80;61.10
46043;DHT22;32533;-33.854;18.542;2022-12-01T12:44:38;28.00;60.80
46043;DHT22;32533;-33.854;18.542;2022-12-01T12:52:46;28.00;61.40
46043;DHT22;32533;-33.854;18.542;2022-12-01T12:55:37;28.00;61.30
46043;DHT22;32533;-33.854;18.542;2022-12-01T13:00:40;28.00;61.70
46043;DHT22;32533;-33.854;18.542;2022-12-01T13:03:26;28.10;61.50
46043;DHT22;32533;-33.854;18.542;2022-12-01T13:09:08;28.00;61.80
46043;DHT22;32533;-33.854;18.542;2022-12-01T13:16:48;28.10;61.40
46043;DHT22;32533;-33.854;18.542;2022-12-01T13:19:30;28.10;61.10
46043;DHT22;32533;-33.854;18.542;2022-12-01T13:21:58;28.10;60.90
46043;DHT22;32533;-33.854;18.542;2022-12-01T13:24:28;28.10;60.80
46043;DHT22;32533;-33.854;18.542;2022-12-01T13:26:58;28.10;61.60
46043;DHT22;32533;-33.854;18.542;2022-12-01T13:29:27;28.10;60.80
46043;DHT22;32533;-33.854;18.542;2022-12-01T13:31:54;28.10;60.50
46043;DHT22;32533;-33.854;18.542;2022-12-01T13:34:31;28.10;60.20
46043;DHT22;32533;-33.854;18.542;2022-12-01T13:36:59;28.20;60.00
46043;DHT22;32533;-33.854;18.542;2022-12-01T13:39:28;28.20;59.80
46043;DHT22;32533;-33.854;18.542;2022-12-01T13:44:31;28.20;59.30
46043;DHT22;32533;-33.854;18.542;2022-12-01T13:47:27;28.10;59.40
46043;DHT22;32533;-33.854;18.542;2022-12-01T13:49:51;28.10;59.40
46043;DHT22;32533;-33.854;18.542;2022-12-01T13:57:33;28.10;59.70
46043;DHT22;32533;-33.854;18.542;2022-12-01T14:02:32;28.10;59.80
46043;DHT22;32533;-33.854;18.542;2022-12-01T14:07:53;28.10;59.80
46043;DHT22;32533;-33.854;18.542;2022-12-01T14:10:24;28.10;59.80
46043;DHT22;32533;-33.854;18.542;2022-12-01T14:12:53;28.10;59.90
46043;DHT22;32533;-33.854;18.542;2022-12-01T14:15:22;28.10;60.00
46043;DHT22;32533;-33.854;18.542;2022-12-01T14:18:03;28.00;59.90
46043;DHT22;32533;-33.854;18.542;2022-12-01T14:20:34;28.00;59.60
46043;DHT22;32533;-33.854;18.542;2022-12-01T14:23:36;28.00;59.50
46043;DHT22;32533;-33.854;18.542;2022-12-01T14:26:20;28.10;59.50
46043;DHT22;32533;-33.854;18.542;2022-12-01T14:34:08;28.20;59.20
46043;DHT22;32533;-33.854;18.542;2022-12-01T14:36:54;28.10;59.00
46043;DHT22;32533;-33.854;18.542;2022-12-01T14:39:34;28.10;59.70
46043;DHT22;32533;-33.854;18.542;2022-12-01T14:42:27;28.10;59.60
46043;DHT22;32533;-33.854;18.542;2022-12-01T14:45:17;28.10;60.20
46043;DHT22;32533;-33.854;18.542;2022-12-01T14:47:58;28.10;59.80
46043;DHT22;32533;-33.854;18.542;2022-12-01T14:50:36;28.10;59.90
46043;DHT22;32533;-33.854;18.542;2022-12-01T14:53:25;28.10;59.90
46043;DHT22;32533;-33.854;18.542;2022-12-01T14:56:15;28.10;59.80
46043;DHT22;32533;-33.854;18.542;2022-12-01T14:58:55;28.00;59.70
46043;DHT22;32533;-33.854;18.542;2022-12-01T15:01:23;28.00;59.70
46043;DHT22;32533;-33.854;18.542;2022-12-01T15:03:57;27.90;59.60
46043;DHT22;32533;-33.854;18.542;2022-12-01T15:06:26;27.80;59.50
46043;DHT22;32533;-33.854;18.542;2022-12-01T15:09:22;27.70;59.50
46043;DHT22;32533;-33.854;18.542;2022-12-01T15:11:57;27.70;59.80
46043;DHT22;32533;-33.854;18.542;2022-12-01T15:14:34;27.60;59.80
46043;DHT22;32533;-33.854;18.542;2022-12-01T15:17:01;27.60;60.00
46043;DHT22;32533;-33.854;18.542;2022-12-01T15:19:38;27.50;60.20
46043;DHT22;32533;-33.854;18.542;2022-12-01T15:22:12;27.40;60.30
46043;DHT22;32533;-33.854;18.542;2022-12-01T15:25:06;27.40;60.40
46043;DHT22;32533;-33.854;18.542;2022-12-01T15:27:33;27.30;60.50
46043;DHT22;32533;-33.854;18.542;2022-12-01T15:30:00;27.30;60.70
46043;DHT22;32533;-33.854;18.542;2022-12-01T15:32:30;27.20;60.70
46043;DHT22;32533;-33.854;18.542;2022-12-01T15:34:58;27.20;60.80
46043;DHT22;32533;-33.854;18.542;2022-12-01T15:37:33;27.20;60.90
46043;DHT22;32533;-33.854;18.542;2022-12-01T15:40:11;27.20;61.00
46043;DHT22;32533;-33.854;18.542;2022-12-01T15:42:40;27.20;61.00
46043;DHT22;32533;-33.854;18.542;2022-12-01T15:47:45;27.10;61.00
46043;DHT22;32533;-33.854;18.542;2022-12-01T15:52:57;27.10;61.10
46043;DHT22;32533;-33.854;18.542;2022-12-01T15:55:31;27.00;61.00
46043;DHT22;32533;-33.854;18.542;2022-12-01T15:57:59;27.00;61.00
46043;DHT22;32533;-33.854;18.542;2022-12-01T18:17:27;25.70;62.70
46043;DHT22;32533;-33.854;18.542;2022-12-01T18:19:53;25.90;63.20
46043;DHT22;32533;-33.854;18.542;2022-12-01T18:22:20;26.00;63.00
46043;DHT22;32533;-33.854;18.542;2022-12-01T18:24:47;26.00;62.80
46043;DHT22;32533;-33.854;18.542;2022-12-01T18:27:14;26.00;62.50
46043;DHT22;32533;-33.854;18.542;2022-12-01T18:29:40;26.10;62.30
46043;DHT22;32533;-33.854;18.542;2022-12-01T18:32:07;26.10;62.20
46043;DHT22;32533;-33.854;18.542;2022-12-01T18:34:33;26.10;62.00
46043;DHT22;32533;-33.854;18.542;2022-12-01T18:37:01;26.10;61.90
46043;DHT22;32533;-33.854;18.542;2022-12-01T18:39:28;26.10;61.80
46043;DHT22;32533;-33.854;18.542;2022-12-01T18:41:55;26.10;61.70
46043;DHT22;32533;-33.854;18.542;2022-12-01T18:44:21;26.10;61.80
46043;DHT22;32533;-33.854;18.542;2022-12-01T18:46:48;26.10;61.70
46043;DHT22;32533;-33.854;18.542;2022-12-01T18:49:15;26.10;61.80
46043;DHT22;32533;-33.854;18.542;2022-12-01T18:51:41;26.10;61.90
46043;DHT22;32533;-33.854;18.542;2022-12-01T18:54:11;26.10;61.80
46043;DHT22;32533;-33.854;18.542;2022-12-01T18:56:38;26.00;61.70
46043;DHT22;32533;-33.854;18.542;2022-12-01T18:59:07;26.00;61.70
46043;DHT22;32533;-33.854;18.542;2022-12-01T19:01:37;26.00;61.70
46043;DHT22;32533;-33.854;18.542;2022-12-01T19:04:05;26.00;61.80
46043;DHT22;32533;-33.854;18.542;2022-12-01T19:09:16;26.00;61.80
46043;DHT22;32533;-33.854;18.542;2022-12-01T19:11:46;26.00;61.90
46043;DHT22;32533;-33.854;18.542;2022-12-01T19:14:26;25.90;61.90
46043;DHT22;32533;-33.854;18.542;2022-12-01T19:16:54;25.90;61.90
46043;DHT22;32533;-33.854;18.542;2022-12-01T19:19:21;25.90;61.90
46043;DHT22;32533;-33.854;18.542;2022-12-01T19:21:48;25.90;62.00
46043;DHT22;32533;-33.854;18.542;2022-12-01T19:24:16;25.80;61.90
46043;DHT22;32533;-33.854;18.542;2022-12-01T19:26:42;25.80;62.30
46043;DHT22;32533;-33.854;18.542;2022-12-01T19:29:09;25.80;63.20
46043;DHT22;32533;-33.854;18.542;2022-12-01T19:31:36;25.80;63.60
46043;DHT22;32533;-33.854;18.542;2022-12-01T19:34:02;25.80;63.80
46043;DHT22;32533;-33.854;18.542;2022-12-01T19:36:29;25.80;63.70
46043;DHT22;32533;-33.854;18.542;2022-12-01T19:38:57;25.70;63.40
46043;DHT22;32533;-33.854;18.542;2022-12-01T19:41:25;25.70;63.10
46043;DHT22;32533;-33.854;18.542;2022-12-01T19:43:53;25.70;63.00
46043;DHT22;32533;-33.854;18.542;2022-12-01T19:46:22;25.70;63.00
46043;DHT22;32533;-33.854;18.542;2022-12-01T19:48:54;25.70;62.90
46043;DHT22;32533;-33.854;18.542;2022-12-01T19:51:24;25.60;62.70
46043;DHT22;32533;-33.854;18.542;2022-12-01T19:53:52;25.60;62.80
46043;DHT22;32533;-33.854;18.542;2022-12-01T19:56:20;25.60;62.80